Tunnel, New York
Current Conditions -  °F | °C
As of 7:46 AM on Thursday 27 Nov 2014 (Local Time) from KBGM Reporting Station
Light Snow Light Snow  
Wind Chill: 33°   Ceiling: 3400
Heat Index: 33°   Visibility: 2mi
Dew Point: 24°   Wind: 3mph
Humidity: 70%   Direction: 340°NNW
Pressure: 29.93"   Gusts: NA
Location:  42.22°N, 75.73°W
Report Text: KBGM 271246Z 34003KT 2SM -SN BKN034 OVC065 01/M04 A2993 RMK AO2 SNE23B28 P0000 T00061044 $
Loading
Personal Weather Stations






























Interactive Weather Map New forecast layout! Learn more

10-Day Weather Forecast

Advertisements
Track Severe Weather on mobile